sensor_id;sensor_type;location;lat;lon;timestamp;temperature;humidity
27114;DHT22;14648;49.730;8.614;2023-01-15T00:03:57;10.80;76.40
27114;DHT22;14648;49.730;8.614;2023-01-15T00:06:25;10.80;76.40
27114;DHT22;14648;49.730;8.614;2023-01-15T00:08:51;10.80;76.40
27114;DHT22;14648;49.730;8.614;2023-01-15T00:11:18;10.80;76.50
27114;DHT22;14648;49.730;8.614;2023-01-15T00:13:44;10.80;76.60
27114;DHT22;14648;49.730;8.614;2023-01-15T00:16:13;10.80;76.60
27114;DHT22;14648;49.730;8.614;2023-01-15T00:18:40;10.80;76.70
27114;DHT22;14648;49.730;8.614;2023-01-15T00:21:09;10.80;76.70
27114;DHT22;14648;49.730;8.614;2023-01-15T00:23:36;10.80;76.80
27114;DHT22;14648;49.730;8.614;2023-01-15T00:26:21;10.80;76.80
27114;DHT22;14648;49.730;8.614;2023-01-15T00:29:06;10.80;76.90
27114;DHT22;14648;49.730;8.614;2023-01-15T00:31:33;10.80;77.00
27114;DHT22;14648;49.730;8.614;2023-01-15T00:34:00;10.80;77.00
27114;DHT22;14648;49.730;8.614;2023-01-15T00:36:26;10.80;77.00
27114;DHT22;14648;49.730;8.614;2023-01-15T00:38:52;10.80;77.10
27114;DHT22;14648;49.730;8.614;2023-01-15T00:41:18;10.90;77.30
27114;DHT22;14648;49.730;8.614;2023-01-15T00:43:44;10.80;77.30
27114;DHT22;14648;49.730;8.614;2023-01-15T00:46:09;10.90;77.30
27114;DHT22;14648;49.730;8.614;2023-01-15T00:48:35;10.90;77.30
27114;DHT22;14648;49.730;8.614;2023-01-15T00:51:02;10.90;77.30
27114;DHT22;14648;49.730;8.614;2023-01-15T00:53:29;10.90;77.30
27114;DHT22;14648;49.730;8.614;2023-01-15T00:55:55;10.90;77.30
27114;DHT22;14648;49.730;8.614;2023-01-15T00:58:21;10.90;77.40
27114;DHT22;14648;49.730;8.614;2023-01-15T01:00:55;10.90;77.40
27114;DHT22;14648;49.730;8.614;2023-01-15T01:03:23;10.90;77.50
27114;DHT22;14648;49.730;8.614;2023-01-15T01:05:49;11.00;77.50
27114;DHT22;14648;49.730;8.614;2023-01-15T01:08:15;10.90;77.60
27114;DHT22;14648;49.730;8.614;2023-01-15T01:10:41;11.00;77.50
27114;DHT22;14648;49.730;8.614;2023-01-15T01:13:07;10.90;77.50
27114;DHT22;14648;49.730;8.614;2023-01-15T01:15:33;11.00;77.50
27114;DHT22;14648;49.730;8.614;2023-01-15T01:17:59;10.90;77.60
27114;DHT22;14648;49.730;8.614;2023-01-15T01:20:25;10.90;77.60
27114;DHT22;14648;49.730;8.614;2023-01-15T01:22:51;11.00;77.60
27114;DHT22;14648;49.730;8.614;2023-01-15T01:25:17;10.90;77.70
27114;DHT22;14648;49.730;8.614;2023-01-15T01:27:44;11.00;77.70
27114;DHT22;14648;49.730;8.614;2023-01-15T01:30:11;11.00;77.70
27114;DHT22;14648;49.730;8.614;2023-01-15T01:32:37;10.90;77.80
27114;DHT22;14648;49.730;8.614;2023-01-15T01:35:05;10.90;77.80
27114;DHT22;14648;49.730;8.614;2023-01-15T01:37:31;10.90;78.70
27114;DHT22;14648;49.730;8.614;2023-01-15T01:39:57;10.90;77.90
27114;DHT22;14648;49.730;8.614;2023-01-15T01:42:23;10.90;78.00
27114;DHT22;14648;49.730;8.614;2023-01-15T01:47:19;11.00;78.10
27114;DHT22;14648;49.730;8.614;2023-01-15T01:49:58;10.90;78.10
27114;DHT22;14648;49.730;8.614;2023-01-15T01:52:35;10.90;78.30
27114;DHT22;14648;49.730;8.614;2023-01-15T01:55:07;11.00;78.20
27114;DHT22;14648;49.730;8.614;2023-01-15T01:57:34;11.00;78.30
27114;DHT22;14648;49.730;8.614;2023-01-15T02:00:00;10.90;78.50
27114;DHT22;14648;49.730;8.614;2023-01-15T02:02:28;10.90;78.50
27114;DHT22;14648;49.730;8.614;2023-01-15T02:04:53;10.90;78.50
27114;DHT22;14648;49.730;8.614;2023-01-15T02:07:19;10.90;78.50
27114;DHT22;14648;49.730;8.614;2023-01-15T02:09:45;10.90;78.60
27114;DHT22;14648;49.730;8.614;2023-01-15T02:12:21;10.90;78.60
27114;DHT22;14648;49.730;8.614;2023-01-15T02:15:01;10.90;78.80
27114;DHT22;14648;49.730;8.614;2023-01-15T02:17:45;10.90;78.70
27114;DHT22;14648;49.730;8.614;2023-01-15T02:20:22;10.90;78.80
27114;DHT22;14648;49.730;8.614;2023-01-15T02:23:12;10.90;78.80
27114;DHT22;14648;49.730;8.614;2023-01-15T02:28:54;10.90;78.90
27114;DHT22;14648;49.730;8.614;2023-01-15T02:31:33;10.90;78.80
27114;DHT22;14648;49.730;8.614;2023-01-15T02:34:10;10.90;78.90
27114;DHT22;14648;49.730;8.614;2023-01-15T02:36:42;10.90;78.70
27114;DHT22;14648;49.730;8.614;2023-01-15T02:39:12;10.80;78.50
27114;DHT22;14648;49.730;8.614;2023-01-15T02:41:44;10.80;78.70
27114;DHT22;14648;49.730;8.614;2023-01-15T02:44:13;10.70;78.60
27114;DHT22;14648;49.730;8.614;2023-01-15T02:46:42;10.70;78.70
27114;DHT22;14648;49.730;8.614;2023-01-15T02:49:12;10.60;78.50
27114;DHT22;14648;49.730;8.614;2023-01-15T02:51:50;10.50;78.60
27114;DHT22;14648;49.730;8.614;2023-01-15T02:54:22;10.50;78.70
27114;DHT22;14648;49.730;8.614;2023-01-15T02:56:50;10.40;78.50
27114;DHT22;14648;49.730;8.614;2023-01-15T02:59:24;10.30;78.60
27114;DHT22;14648;49.730;8.614;2023-01-15T03:01:57;10.30;78.60
27114;DHT22;14648;49.730;8.614;2023-01-15T03:04:32;10.20;78.50
27114;DHT22;14648;49.730;8.614;2023-01-15T03:07:19;10.20;79.00
27114;DHT22;14648;49.730;8.614;2023-01-15T03:09:48;10.20;78.20
27114;DHT22;14648;49.730;8.614;2023-01-15T03:15:24;10.10;78.20
27114;DHT22;14648;49.730;8.614;2023-01-15T03:18:11;10.00;78.00
27114;DHT22;14648;49.730;8.614;2023-01-15T03:20:42;10.10;78.60
27114;DHT22;14648;49.730;8.614;2023-01-15T03:23:13;10.00;77.70
27114;DHT22;14648;49.730;8.614;2023-01-15T03:25:44;10.00;77.70
27114;DHT22;14648;49.730;8.614;2023-01-15T03:28:13;10.00;77.70
27114;DHT22;14648;49.730;8.614;2023-01-15T03:30:40;10.00;77.60
27114;DHT22;14648;49.730;8.614;2023-01-15T03:33:07;10.00;77.40
27114;DHT22;14648;49.730;8.614;2023-01-15T03:35:47;9.90;77.30
27114;DHT22;14648;49.730;8.614;2023-01-15T03:38:26;9.90;77.30
27114;DHT22;14648;49.730;8.614;2023-01-15T03:55:46;9.80;76.80
27114;DHT22;14648;49.730;8.614;2023-01-15T03:58:21;9.80;76.70
27114;DHT22;14648;49.730;8.614;2023-01-15T04:00:52;9.70;76.40
27114;DHT22;14648;49.730;8.614;2023-01-15T04:03:22;9.60;76.50
27114;DHT22;14648;49.730;8.614;2023-01-15T04:05:49;9.60;76.60
27114;DHT22;14648;49.730;8.614;2023-01-15T04:08:16;9.60;76.70
27114;DHT22;14648;49.730;8.614;2023-01-15T04:10:58;9.60;76.50
27114;DHT22;14648;49.730;8.614;2023-01-15T04:13:25;9.60;76.50
27114;DHT22;14648;49.730;8.614;2023-01-15T04:15:51;9.60;76.20
27114;DHT22;14648;49.730;8.614;2023-01-15T04:18:18;9.50;76.20
27114;DHT22;14648;49.730;8.614;2023-01-15T04:20:45;9.50;76.20
27114;DHT22;14648;49.730;8.614;2023-01-15T04:23:11;9.40;76.30
27114;DHT22;14648;49.730;8.614;2023-01-15T04:25:37;9.40;76.20
27114;DHT22;14648;49.730;8.614;2023-01-15T04:28:04;9.40;76.00
27114;DHT22;14648;49.730;8.614;2023-01-15T04:30:29;9.40;76.10
27114;DHT22;14648;49.730;8.614;2023-01-15T04:32:55;9.30;76.10
27114;DHT22;14648;49.730;8.614;2023-01-15T04:35:22;9.30;75.80
27114;DHT22;14648;49.730;8.614;2023-01-15T04:37:47;9.20;75.50
27114;DHT22;14648;49.730;8.614;2023-01-15T04:40:13;9.20;75.40
27114;DHT22;14648;49.730;8.614;2023-01-15T04:42:59;9.10;75.20
27114;DHT22;14648;49.730;8.614;2023-01-15T04:45:45;9.00;75.10
27114;DHT22;14648;49.730;8.614;2023-01-15T04:48:11;8.90;75.20
27114;DHT22;14648;49.730;8.614;2023-01-15T04:50:37;8.90;75.10
27114;DHT22;14648;49.730;8.614;2023-01-15T04:53:04;8.90;75.10
27114;DHT22;14648;49.730;8.614;2023-01-15T04:55:29;8.80;74.90
27114;DHT22;14648;49.730;8.614;2023-01-15T04:57:56;8.80;74.90
27114;DHT22;14648;49.730;8.614;2023-01-15T05:00:21;8.80;74.80
27114;DHT22;14648;49.730;8.614;2023-01-15T05:02:48;8.70;74.80
27114;DHT22;14648;49.730;8.614;2023-01-15T05:05:14;8.70;74.80
27114;DHT22;14648;49.730;8.614;2023-01-15T05:07:40;8.70;74.70
27114;DHT22;14648;49.730;8.614;2023-01-15T05:10:06;8.70;74.70
27114;DHT22;14648;49.730;8.614;2023-01-15T05:12:32;8.60;74.50
27114;DHT22;14648;49.730;8.614;2023-01-15T05:14:58;8.60;74.60
27114;DHT22;14648;49.730;8.614;2023-01-15T05:17:23;8.60;74.60
27114;DHT22;14648;49.730;8.614;2023-01-15T05:19:49;8.60;74.60
27114;DHT22;14648;49.730;8.614;2023-01-15T05:22:15;8.60;74.60
27114;DHT22;14648;49.730;8.614;2023-01-15T05:24:40;8.60;74.60
27114;DHT22;14648;49.730;8.614;2023-01-15T05:27:06;8.60;74.60
27114;DHT22;14648;49.730;8.614;2023-01-15T05:29:31;8.60;74.50
27114;DHT22;14648;49.730;8.614;2023-01-15T05:31:57;8.60;74.50
27114;DHT22;14648;49.730;8.614;2023-01-15T05:34:23;8.60;74.50
27114;DHT22;14648;49.730;8.614;2023-01-15T05:36:48;8.60;74.20
27114;DHT22;14648;49.730;8.614;2023-01-15T05:39:14;8.50;74.20
27114;DHT22;14648;49.730;8.614;2023-01-15T05:41:41;8.50;74.00
27114;DHT22;14648;49.730;8.614;2023-01-15T05:44:26;8.40;73.90
27114;DHT22;14648;49.730;8.614;2023-01-15T05:46:56;8.40;73.90
27114;DHT22;14648;49.730;8.614;2023-01-15T05:49:25;8.30;74.00
27114;DHT22;14648;49.730;8.614;2023-01-15T05:51:54;8.30;74.20
27114;DHT22;14648;49.730;8.614;2023-01-15T05:54:25;8.30;74.20
27114;DHT22;14648;49.730;8.614;2023-01-15T05:56:53;8.30;74.20
27114;DHT22;14648;49.730;8.614;2023-01-15T05:59:21;8.30;74.20
27114;DHT22;14648;49.730;8.614;2023-01-15T06:01:49;8.30;74.20
27114;DHT22;14648;49.730;8.614;2023-01-15T06:04:14;8.30;74.10
27114;DHT22;14648;49.730;8.614;2023-01-15T06:06:42;8.30;74.10
27114;DHT22;14648;49.730;8.614;2023-01-15T06:09:08;8.30;73.90
27114;DHT22;14648;49.730;8.614;2023-01-15T06:11:40;8.30;74.10
27114;DHT22;14648;49.730;8.614;2023-01-15T06:14:06;8.30;74.20
27114;DHT22;14648;49.730;8.614;2023-01-15T06:16:32;8.30;74.00
27114;DHT22;14648;49.730;8.614;2023-01-15T06:19:03;8.30;74.00
27114;DHT22;14648;49.730;8.614;2023-01-15T06:21:31;8.30;73.80
27114;DHT22;14648;49.730;8.614;2023-01-15T06:23:58;8.30;73.80
27114;DHT22;14648;49.730;8.614;2023-01-15T06:26:23;8.20;73.70
27114;DHT22;14648;49.730;8.614;2023-01-15T06:28:49;8.20;73.80
27114;DHT22;14648;49.730;8.614;2023-01-15T06:31:20;8.10;73.90
27114;DHT22;14648;49.730;8.614;2023-01-15T06:33:46;8.10;74.10
27114;DHT22;14648;49.730;8.614;2023-01-15T06:36:15;8.10;74.20
27114;DHT22;14648;49.730;8.614;2023-01-15T06:38:43;8.10;74.20
27114;DHT22;14648;49.730;8.614;2023-01-15T06:41:13;8.20;74.10
27114;DHT22;14648;49.730;8.614;2023-01-15T06:43:58;8.10;74.10
27114;DHT22;14648;49.730;8.614;2023-01-15T06:46:45;8.20;74.10
27114;DHT22;14648;49.730;8.614;2023-01-15T06:49:31;8.20;74.00
27114;DHT22;14648;49.730;8.614;2023-01-15T06:51:59;8.20;73.90
27114;DHT22;14648;49.730;8.614;2023-01-15T06:54:26;8.20;73.90
27114;DHT22;14648;49.730;8.614;2023-01-15T06:56:52;8.20;73.90
27114;DHT22;14648;49.730;8.614;2023-01-15T06:59:18;8.20;73.90
27114;DHT22;14648;49.730;8.614;2023-01-15T07:01:44;8.20;73.90
27114;DHT22;14648;49.730;8.614;2023-01-15T07:04:09;8.20;73.80
27114;DHT22;14648;49.730;8.614;2023-01-15T07:06:35;8.20;73.70
27114;DHT22;14648;49.730;8.614;2023-01-15T07:09:01;8.20;73.80
27114;DHT22;14648;49.730;8.614;2023-01-15T07:11:26;8.10;73.80
27114;DHT22;14648;49.730;8.614;2023-01-15T07:13:54;8.10;73.90
27114;DHT22;14648;49.730;8.614;2023-01-15T07:16:34;8.10;74.10
27114;DHT22;14648;49.730;8.614;2023-01-15T07:19:02;8.00;74.00
27114;DHT22;14648;49.730;8.614;2023-01-15T07:21:29;8.10;74.00
27114;DHT22;14648;49.730;8.614;2023-01-15T07:23:58;8.10;73.90
27114;DHT22;14648;49.730;8.614;2023-01-15T07:26:26;8.10;73.80
27114;DHT22;14648;49.730;8.614;2023-01-15T07:28:51;8.10;73.60
27114;DHT22;14648;49.730;8.614;2023-01-15T07:31:20;8.10;73.70
27114;DHT22;14648;49.730;8.614;2023-01-15T07:33:46;8.10;73.70
27114;DHT22;14648;49.730;8.614;2023-01-15T07:36:13;8.10;73.70
27114;DHT22;14648;49.730;8.614;2023-01-15T07:38:38;8.10;73.70
27114;DHT22;14648;49.730;8.614;2023-01-15T07:41:09;8.00;73.70
27114;DHT22;14648;49.730;8.614;2023-01-15T07:43:53;8.00;73.60
27114;DHT22;14648;49.730;8.614;2023-01-15T07:46:37;8.00;73.60
27114;DHT22;14648;49.730;8.614;2023-01-15T07:49:22;8.00;73.60
27114;DHT22;14648;49.730;8.614;2023-01-15T07:52:06;7.90;73.60
27114;DHT22;14648;49.730;8.614;2023-01-15T07:54:38;7.80;73.70
27114;DHT22;14648;49.730;8.614;2023-01-15T07:57:05;7.80;73.70
27114;DHT22;14648;49.730;8.614;2023-01-15T07:59:31;7.70;73.80
27114;DHT22;14648;49.730;8.614;2023-01-15T08:01:58;7.70;74.00
27114;DHT22;14648;49.730;8.614;2023-01-15T08:04:24;7.60;73.80
27114;DHT22;14648;49.730;8.614;2023-01-15T08:06:53;7.60;74.20
27114;DHT22;14648;49.730;8.614;2023-01-15T08:09:22;7.60;73.90
27114;DHT22;14648;49.730;8.614;2023-01-15T08:11:51;7.60;74.00
27114;DHT22;14648;49.730;8.614;2023-01-15T08:14:36;7.60;73.90
27114;DHT22;14648;49.730;8.614;2023-01-15T08:17:21;7.50;73.80
27114;DHT22;14648;49.730;8.614;2023-01-15T08:19:48;7.50;73.90
27114;DHT22;14648;49.730;8.614;2023-01-15T08:22:14;7.50;73.90
27114;DHT22;14648;49.730;8.614;2023-01-15T08:24:40;7.50;73.90
27114;DHT22;14648;49.730;8.614;2023-01-15T08:27:07;7.50;73.80
27114;DHT22;14648;49.730;8.614;2023-01-15T08:29:36;7.50;73.80
27114;DHT22;14648;49.730;8.614;2023-01-15T08:32:02;7.50;73.80
27114;DHT22;14648;49.730;8.614;2023-01-15T08:34:28;7.40;73.60
27114;DHT22;14648;49.730;8.614;2023-01-15T08:36:54;7.40;73.60
27114;DHT22;14648;49.730;8.614;2023-01-15T08:39:22;7.40;73.70
27114;DHT22;14648;49.730;8.614;2023-01-15T08:41:47;7.40;73.70
27114;DHT22;14648;49.730;8.614;2023-01-15T08:44:14;7.40;73.70
27114;DHT22;14648;49.730;8.614;2023-01-15T08:46:41;7.30;73.70
27114;DHT22;14648;49.730;8.614;2023-01-15T08:49:09;7.30;73.70
27114;DHT22;14648;49.730;8.614;2023-01-15T08:51:35;7.30;73.70
27114;DHT22;14648;49.730;8.614;2023-01-15T08:54:00;7.20;73.50
27114;DHT22;14648;49.730;8.614;2023-01-15T08:56:27;7.20;73.50
27114;DHT22;14648;49.730;8.614;2023-01-15T08:58:53;7.20;73.50
27114;DHT22;14648;49.730;8.614;2023-01-15T09:01:19;7.10;73.60
27114;DHT22;14648;49.730;8.614;2023-01-15T09:03:44;7.20;73.60
27114;DHT22;14648;49.730;8.614;2023-01-15T09:06:14;7.20;73.70
27114;DHT22;14648;49.730;8.614;2023-01-15T09:08:40;7.20;73.70
27114;DHT22;14648;49.730;8.614;2023-01-15T09:11:06;7.20;73.70
27114;DHT22;14648;49.730;8.614;2023-01-15T09:13:37;7.20;73.50
27114;DHT22;14648;49.730;8.614;2023-01-15T09:16:04;7.20;73.60
27114;DHT22;14648;49.730;8.614;2023-01-15T09:18:31;7.20;73.70
27114;DHT22;14648;49.730;8.614;2023-01-15T09:21:05;7.20;73.70
27114;DHT22;14648;49.730;8.614;2023-01-15T09:23:33;7.20;73.70
27114;DHT22;14648;49.730;8.614;2023-01-15T09:26:01;7.20;73.60
27114;DHT22;14648;49.730;8.614;2023-01-15T09:28:33;7.20;74.30
27114;DHT22;14648;49.730;8.614;2023-01-15T09:30:59;7.20;73.70
27114;DHT22;14648;49.730;8.614;2023-01-15T09:33:25;7.20;73.70
27114;DHT22;14648;49.730;8.614;2023-01-15T09:35:51;7.20;73.60
27114;DHT22;14648;49.730;8.614;2023-01-15T09:38:19;7.20;73.70
27114;DHT22;14648;49.730;8.614;2023-01-15T09:40:54;7.10;73.70
27114;DHT22;14648;49.730;8.614;2023-01-15T09:43:52;7.10;73.80
27114;DHT22;14648;49.730;8.614;2023-01-15T09:46:40;7.10;73.90
27114;DHT22;14648;49.730;8.614;2023-01-15T09:55:09;7.20;73.70
27114;DHT22;14648;49.730;8.614;2023-01-15T09:57:45;7.20;73.80
27114;DHT22;14648;49.730;8.614;2023-01-15T10:00:21;7.20;73.60
27114;DHT22;14648;49.730;8.614;2023-01-15T10:02:52;7.20;73.60
27114;DHT22;14648;49.730;8.614;2023-01-15T10:05:28;7.20;73.80
27114;DHT22;14648;49.730;8.614;2023-01-15T10:08:19;7.20;73.80
27114;DHT22;14648;49.730;8.614;2023-01-15T10:10:47;7.20;73.70
27114;DHT22;14648;49.730;8.614;2023-01-15T10:13:20;7.20;73.50
27114;DHT22;14648;49.730;8.614;2023-01-15T10:15:52;7.20;73.60
27114;DHT22;14648;49.730;8.614;2023-01-15T10:18:25;7.10;73.60
27114;DHT22;14648;49.730;8.614;2023-01-15T10:21:09;7.10;73.60
27114;DHT22;14648;49.730;8.614;2023-01-15T10:24:05;7.20;73.50
27114;DHT22;14648;49.730;8.614;2023-01-15T10:26:38;7.10;73.50
27114;DHT22;14648;49.730;8.614;2023-01-15T10:35:03;7.10;73.50
27114;DHT22;14648;49.730;8.614;2023-01-15T10:43:15;7.10;73.10
27114;DHT22;14648;49.730;8.614;2023-01-15T10:46:04;7.10;73.40
27114;DHT22;14648;49.730;8.614;2023-01-15T10:48:52;7.10;72.90
27114;DHT22;14648;49.730;8.614;2023-01-15T10:51:32;7.10;72.90
27114;DHT22;14648;49.730;8.614;2023-01-15T10:54:09;7.10;72.60
27114;DHT22;14648;49.730;8.614;2023-01-15T10:59:41;7.00;72.30
27114;DHT22;14648;49.730;8.614;2023-01-15T11:02:23;7.00;72.10
27114;DHT22;14648;49.730;8.614;2023-01-15T11:05:16;6.90;72.00
27114;DHT22;14648;49.730;8.614;2023-01-15T11:07:52;6.90;71.90
27114;DHT22;14648;49.730;8.614;2023-01-15T11:10:20;6.80;71.80
27114;DHT22;14648;49.730;8.614;2023-01-15T11:12:55;6.80;71.80
27114;DHT22;14648;49.730;8.614;2023-01-15T11:15:47;6.80;71.80
27114;DHT22;14648;49.730;8.614;2023-01-15T11:18:40;6.70;71.80
27114;DHT22;14648;49.730;8.614;2023-01-15T11:21:27;6.70;71.50
27114;DHT22;14648;49.730;8.614;2023-01-15T11:23:55;6.70;71.50
27114;DHT22;14648;49.730;8.614;2023-01-15T11:26:27;6.60;71.30
27114;DHT22;14648;49.730;8.614;2023-01-15T11:28:55;6.60;71.50
27114;DHT22;14648;49.730;8.614;2023-01-15T11:31:33;6.60;71.20
27114;DHT22;14648;49.730;8.614;2023-01-15T11:34:02;6.60;70.80
27114;DHT22;14648;49.730;8.614;2023-01-15T11:36:30;6.50;70.50
27114;DHT22;14648;49.730;8.614;2023-01-15T11:38:57;6.50;70.40
27114;DHT22;14648;49.730;8.614;2023-01-15T11:41:31;6.40;69.80
27114;DHT22;14648;49.730;8.614;2023-01-15T11:44:20;6.30;69.60
27114;DHT22;14648;49.730;8.614;2023-01-15T11:47:17;6.20;69.20
27114;DHT22;14648;49.730;8.614;2023-01-15T11:50:15;6.20;69.30
27114;DHT22;14648;49.730;8.614;2023-01-15T11:53:00;6.10;69.30
27114;DHT22;14648;49.730;8.614;2023-01-15T11:55:27;6.00;69.50
27114;DHT22;14648;49.730;8.614;2023-01-15T11:57:54;6.00;69.50
27114;DHT22;14648;49.730;8.614;2023-01-15T12:00:24;6.00;69.50
27114;DHT22;14648;49.730;8.614;2023-01-15T12:02:59;6.00;69.50
27114;DHT22;14648;49.730;8.614;2023-01-15T12:05:33;6.00;69.50
27114;DHT22;14648;49.730;8.614;2023-01-15T12:08:21;6.00;69.50
27114;DHT22;14648;49.730;8.614;2023-01-15T12:11:03;6.00;69.50
27114;DHT22;14648;49.730;8.614;2023-01-15T12:17:08;6.10;69.10
27114;DHT22;14648;49.730;8.614;2023-01-15T12:28:03;6.50;69.30
27114;DHT22;14648;49.730;8.614;2023-01-15T12:30:57;6.60;69.00
27114;DHT22;14648;49.730;8.614;2023-01-15T12:33:47;6.70;69.10
27114;DHT22;14648;49.730;8.614;2023-01-15T12:39:21;6.90;69.60
27114;DHT22;14648;49.730;8.614;2023-01-15T12:41:59;7.10;69.80
27114;DHT22;14648;49.730;8.614;2023-01-15T12:44:54;7.30;70.00
27114;DHT22;14648;49.730;8.614;2023-01-15T12:53:19;7.70;69.60
27114;DHT22;14648;49.730;8.614;2023-01-15T13:07:54;8.30;68.90
27114;DHT22;14648;49.730;8.614;2023-01-15T13:10:42;8.50;68.80
27114;DHT22;14648;49.730;8.614;2023-01-15T13:13:19;8.50;68.80
27114;DHT22;14648;49.730;8.614;2023-01-15T13:21:55;8.80;68.30
27114;DHT22;14648;49.730;8.614;2023-01-15T13:27:54;9.10;67.80
27114;DHT22;14648;49.730;8.614;2023-01-15T13:33:44;9.30;66.80
27114;DHT22;14648;49.730;8.614;2023-01-15T13:36:17;9.20;66.50
27114;DHT22;14648;49.730;8.614;2023-01-15T13:38:52;9.30;66.50
27114;DHT22;14648;49.730;8.614;2023-01-15T13:41:25;9.40;66.50
27114;DHT22;14648;49.730;8.614;2023-01-15T13:44:19;9.40;66.00
27114;DHT22;14648;49.730;8.614;2023-01-15T13:46:59;9.60;65.50
27114;DHT22;14648;49.730;8.614;2023-01-15T13:49:32;9.50;64.60
27114;DHT22;14648;49.730;8.614;2023-01-15T13:52:02;9.40;64.40
27114;DHT22;14648;49.730;8.614;2023-01-15T13:54:32;9.40;64.20
27114;DHT22;14648;49.730;8.614;2023-01-15T14:00:02;9.40;63.30
27114;DHT22;14648;49.730;8.614;2023-01-15T14:02:33;9.50;63.30
27114;DHT22;14648;49.730;8.614;2023-01-15T14:08:14;9.50;61.60
27114;DHT22;14648;49.730;8.614;2023-01-15T14:10:47;9.50;61.60
27114;DHT22;14648;49.730;8.614;2023-01-15T14:15:51;9.60;61.20
27114;DHT22;14648;49.730;8.614;2023-01-15T14:27:11;9.40;59.60
27114;DHT22;14648;49.730;8.614;2023-01-15T14:32:36;9.30;59.40
27114;DHT22;14648;49.730;8.614;2023-01-15T14:35:12;9.40;59.50
27114;DHT22;14648;49.730;8.614;2023-01-15T14:37:53;9.40;59.10
27114;DHT22;14648;49.730;8.614;2023-01-15T14:40:31;9.40;58.80
27114;DHT22;14648;49.730;8.614;2023-01-15T14:43:01;9.30;58.30
27114;DHT22;14648;49.730;8.614;2023-01-15T14:45:35;9.20;58.30
27114;DHT22;14648;49.730;8.614;2023-01-15T14:51:14;9.10;57.70
27114;DHT22;14648;49.730;8.614;2023-01-15T14:54:00;9.00;57.70
27114;DHT22;14648;49.730;8.614;2023-01-15T14:56:34;8.90;57.50
27114;DHT22;14648;49.730;8.614;2023-01-15T14:59:16;8.90;57.30
27114;DHT22;14648;49.730;8.614;2023-01-15T15:02:04;8.80;57.00
27114;DHT22;14648;49.730;8.614;2023-01-15T15:07:23;8.70;56.50
27114;DHT22;14648;49.730;8.614;2023-01-15T15:10:08;8.70;56.10
27114;DHT22;14648;49.730;8.614;2023-01-15T15:16:24;8.50;56.10
27114;DHT22;14648;49.730;8.614;2023-01-15T15:19:00;8.50;56.10
27114;DHT22;14648;49.730;8.614;2023-01-15T15:21:32;8.40;56.20
27114;DHT22;14648;49.730;8.614;2023-01-15T15:24:12;8.30;56.40
27114;DHT22;14648;49.730;8.614;2023-01-15T15:26:43;8.30;56.60
27114;DHT22;14648;49.730;8.614;2023-01-15T15:29:12;8.30;56.80
27114;DHT22;14648;49.730;8.614;2023-01-15T15:31:43;8.30;56.90
27114;DHT22;14648;49.730;8.614;2023-01-15T15:34:30;8.20;56.90
27114;DHT22;14648;49.730;8.614;2023-01-15T15:37:01;8.20;56.90
27114;DHT22;14648;49.730;8.614;2023-01-15T15:42:50;8.20;57.00
27114;DHT22;14648;49.730;8.614;2023-01-15T15:45:51;8.10;57.10
27114;DHT22;14648;49.730;8.614;2023-01-15T15:48:36;8.10;57.20
27114;DHT22;14648;49.730;8.614;2023-01-15T15:54:20;8.10;57.40
27114;DHT22;14648;49.730;8.614;2023-01-15T15:57:06;8.00;57.40
27114;DHT22;14648;49.730;8.614;2023-01-15T15:59:45;8.00;57.50
27114;DHT22;14648;49.730;8.614;2023-01-15T16:02:18;8.00;57.40
27114;DHT22;14648;49.730;8.614;2023-01-15T16:04:54;8.00;57.60
27114;DHT22;14648;49.730;8.614;2023-01-15T16:07:27;8.00;57.60
27114;DHT22;14648;49.730;8.614;2023-01-15T16:10:14;7.90;57.70
27114;DHT22;14648;49.730;8.614;2023-01-15T16:12:53;7.90;57.90
27114;DHT22;14648;49.730;8.614;2023-01-15T16:15:27;7.90;58.00
27114;DHT22;14648;49.730;8.614;2023-01-15T16:17:57;7.90;58.10
27114;DHT22;14648;49.730;8.614;2023-01-15T16:20:24;7.80;58.10
27114;DHT22;14648;49.730;8.614;2023-01-15T16:22:52;7.80;58.30
27114;DHT22;14648;49.730;8.614;2023-01-15T16:25:25;7.80;58.30
27114;DHT22;14648;49.730;8.614;2023-01-15T16:27:53;7.70;58.40
27114;DHT22;14648;49.730;8.614;2023-01-15T16:30:20;7.70;58.50
27114;DHT22;14648;49.730;8.614;2023-01-15T16:32:46;7.70;58.50
27114;DHT22;14648;49.730;8.614;2023-01-15T16:37:54;7.70;58.70
27114;DHT22;14648;49.730;8.614;2023-01-15T16:40:44;7.70;58.70
27114;DHT22;14648;49.730;8.614;2023-01-15T16:43:23;7.60;58.70
27114;DHT22;14648;49.730;8.614;2023-01-15T16:46:27;7.70;58.90
27114;DHT22;14648;49.730;8.614;2023-01-15T16:51:53;7.60;59.30
27114;DHT22;14648;49.730;8.614;2023-01-15T16:57:01;7.50;59.90
27114;DHT22;14648;49.730;8.614;2023-01-15T17:02:17;7.50;60.40
27114;DHT22;14648;49.730;8.614;2023-01-15T17:04:47;7.40;60.80
27114;DHT22;14648;49.730;8.614;2023-01-15T17:07:30;7.40;60.90
27114;DHT22;14648;49.730;8.614;2023-01-15T17:10:00;7.40;61.30
27114;DHT22;14648;49.730;8.614;2023-01-15T17:12:46;7.40;61.60
27114;DHT22;14648;49.730;8.614;2023-01-15T17:17:42;7.30;62.30
27114;DHT22;14648;49.730;8.614;2023-01-15T17:20:14;7.30;62.50
27114;DHT22;14648;49.730;8.614;2023-01-15T17:22:43;7.30;62.60
27114;DHT22;14648;49.730;8.614;2023-01-15T17:25:25;7.30;62.70
27114;DHT22;14648;49.730;8.614;2023-01-15T17:27:57;7.40;63.00
27114;DHT22;14648;49.730;8.614;2023-01-15T17:30:24;7.30;62.90
27114;DHT22;14648;49.730;8.614;2023-01-15T17:33:04;7.30;63.00
27114;DHT22;14648;49.730;8.614;2023-01-15T17:35:40;7.30;63.30
27114;DHT22;14648;49.730;8.614;2023-01-15T17:38:08;7.30;63.40
27114;DHT22;14648;49.730;8.614;2023-01-15T17:40:36;7.30;63.30
27114;DHT22;14648;49.730;8.614;2023-01-15T17:43:03;7.20;63.40
27114;DHT22;14648;49.730;8.614;2023-01-15T17:45:30;7.20;63.50
27114;DHT22;14648;49.730;8.614;2023-01-15T17:47:58;7.10;63.50
27114;DHT22;14648;49.730;8.614;2023-01-15T17:50:27;7.10;63.50
27114;DHT22;14648;49.730;8.614;2023-01-15T17:52:53;7.10;63.50
27114;DHT22;14648;49.730;8.614;2023-01-15T17:55:21;7.10;63.40
27114;DHT22;14648;49.730;8.614;2023-01-15T17:58:09;7.10;63.40
27114;DHT22;14648;49.730;8.614;2023-01-15T18:00:55;7.10;63.30
27114;DHT22;14648;49.730;8.614;2023-01-15T18:03:45;7.10;63.20
27114;DHT22;14648;49.730;8.614;2023-01-15T18:06:31;7.10;63.20
27114;DHT22;14648;49.730;8.614;2023-01-15T18:09:00;7.00;63.90
27114;DHT22;14648;49.730;8.614;2023-01-15T18:11:27;7.00;63.20
27114;DHT22;14648;49.730;8.614;2023-01-15T18:13:54;7.00;63.30
27114;DHT22;14648;49.730;8.614;2023-01-15T18:16:21;7.00;63.30
27114;DHT22;14648;49.730;8.614;2023-01-15T18:18:47;6.90;63.50
27114;DHT22;14648;49.730;8.614;2023-01-15T18:21:13;7.00;63.50
27114;DHT22;14648;49.730;8.614;2023-01-15T18:23:39;6.90;64.60
27114;DHT22;14648;49.730;8.614;2023-01-15T18:26:06;6.90;64.30
27114;DHT22;14648;49.730;8.614;2023-01-15T18:28:36;6.90;64.20
27114;DHT22;14648;49.730;8.614;2023-01-15T18:31:04;6.90;64.20
27114;DHT22;14648;49.730;8.614;2023-01-15T18:33:30;6.90;64.20
27114;DHT22;14648;49.730;8.614;2023-01-15T18:36:11;6.80;64.10